sensor_id;sensor_type;location;lat;lon;timestamp;pressure;altitude;pressure_sealevel;temperature;humidity
18527;BME280;9393;42.158;24.748;2023-10-08T00:01:21;99796.53;;;19.75;40.98
18527;BME280;9393;42.158;24.748;2023-10-08T00:04:26;99803.28;;;19.84;40.73
18527;BME280;9393;42.158;24.748;2023-10-08T00:07:30;99806.31;;;19.81;40.83
18527;BME280;9393;42.158;24.748;2023-10-08T00:10:35;99787.59;;;19.83;40.63
18527;BME280;9393;42.158;24.748;2023-10-08T00:13:40;99787.00;;;19.87;40.61
18527;BME280;9393;42.158;24.748;2023-10-08T00:16:46;99778.19;;;19.74;40.93
18527;BME280;9393;42.158;24.748;2023-10-08T00:19:52;99774.81;;;19.93;40.03
18527;BME280;9393;42.158;24.748;2023-10-08T00:22:56;99774.09;;;19.71;40.46
18527;BME280;9393;42.158;24.748;2023-10-08T00:26:04;99762.41;;;20.00;39.92
18527;BME280;9393;42.158;24.748;2023-10-08T00:29:09;99762.50;;;20.13;40.00
18527;BME280;9393;42.158;24.748;2023-10-08T00:32:22;99760.53;;;20.28;39.69
18527;BME280;9393;42.158;24.748;2023-10-08T00:35:26;99765.19;;;20.26;39.47
18527;BME280;9393;42.158;24.748;2023-10-08T00:38:31;99761.97;;;20.31;39.44
18527;BME280;9393;42.158;24.748;2023-10-08T00:41:35;99770.72;;;20.31;39.33
18527;BME280;9393;42.158;24.748;2023-10-08T00:44:40;99766.28;;;20.38;38.97
18527;BME280;9393;42.158;24.748;2023-10-08T00:47:55;99774.22;;;20.38;38.91
18527;BME280;9393;42.158;24.748;2023-10-08T00:51:02;99771.28;;;20.20;39.66
18527;BME280;9393;42.158;24.748;2023-10-08T00:54:17;99761.63;;;19.99;39.84
18527;BME280;9393;42.158;24.748;2023-10-08T00:57:27;99766.38;;;19.76;40.30
18527;BME280;9393;42.158;24.748;2023-10-08T01:00:32;99767.97;;;19.71;40.18
18527;BME280;9393;42.158;24.748;2023-10-08T01:03:46;99756.56;;;19.70;40.18
18527;BME280;9393;42.158;24.748;2023-10-08T01:06:53;99760.22;;;19.69;40.22
18527;BME280;9393;42.158;24.748;2023-10-08T01:10:01;99760.31;;;19.82;40.08
18527;BME280;9393;42.158;24.748;2023-10-08T01:13:13;99755.84;;;19.89;39.98
18527;BME280;9393;42.158;24.748;2023-10-08T01:16:22;99749.25;;;19.72;40.39
18527;BME280;9393;42.158;24.748;2023-10-08T01:19:31;99748.44;;;19.65;40.55
18527;BME280;9393;42.158;24.748;2023-10-08T01:22:36;99742.97;;;19.80;40.46
18527;BME280;9393;42.158;24.748;2023-10-08T01:25:42;99740.41;;;19.93;40.58
18527;BME280;9393;42.158;24.748;2023-10-08T01:28:53;99738.66;;;20.06;40.08
18527;BME280;9393;42.158;24.748;2023-10-08T01:31:58;99731.41;;;19.81;40.74
18527;BME280;9393;42.158;24.748;2023-10-08T01:35:05;99735.34;;;19.57;41.11
18527;BME280;9393;42.158;24.748;2023-10-08T01:38:26;99738.84;;;19.64;41.08
18527;BME280;9393;42.158;24.748;2023-10-08T01:41:30;99728.16;;;19.85;40.26
18527;BME280;9393;42.158;24.748;2023-10-08T01:44:35;99727.75;;;19.82;40.55
18527;BME280;9393;42.158;24.748;2023-10-08T01:47:39;99725.09;;;19.41;40.91
18527;BME280;9393;42.158;24.748;2023-10-08T01:50:43;99718.00;;;19.48;41.03
18527;BME280;9393;42.158;24.748;2023-10-08T01:53:51;99714.28;;;19.77;40.28
18527;BME280;9393;42.158;24.748;2023-10-08T01:56:56;99709.09;;;19.62;40.67
18527;BME280;9393;42.158;24.748;2023-10-08T02:00:00;99697.63;;;19.48;41.00
18527;BME280;9393;42.158;24.748;2023-10-08T02:03:13;99699.56;;;19.61;40.68
18527;BME280;9393;42.158;24.748;2023-10-08T02:06:18;99707.03;;;19.51;41.07
18527;BME280;9393;42.158;24.748;2023-10-08T02:09:25;99699.56;;;19.61;40.45
18527;BME280;9393;42.158;24.748;2023-10-08T02:12:29;99701.78;;;19.57;40.70
18527;BME280;9393;42.158;24.748;2023-10-08T02:15:33;99695.81;;;19.49;40.96
18527;BME280;9393;42.158;24.748;2023-10-08T02:18:37;99702.91;;;19.48;40.81
18527;BME280;9393;42.158;24.748;2023-10-08T02:21:42;99703.47;;;19.37;41.13
18527;BME280;9393;42.158;24.748;2023-10-08T02:24:50;99701.97;;;19.56;40.84
18527;BME280;9393;42.158;24.748;2023-10-08T02:27:55;99692.19;;;19.56;40.37
18527;BME280;9393;42.158;24.748;2023-10-08T02:31:00;99696.09;;;19.60;39.99
18527;BME280;9393;42.158;24.748;2023-10-08T02:34:05;99687.75;;;19.63;40.42
18527;BME280;9393;42.158;24.748;2023-10-08T02:37:11;99685.81;;;19.79;40.13
18527;BME280;9393;42.158;24.748;2023-10-08T02:40:18;99679.03;;;19.35;40.49
18527;BME280;9393;42.158;24.748;2023-10-08T02:43:29;99680.06;;;19.69;40.07
18527;BME280;9393;42.158;24.748;2023-10-08T02:46:33;99673.66;;;19.50;40.47
18527;BME280;9393;42.158;24.748;2023-10-08T02:49:40;99676.50;;;19.55;40.43
18527;BME280;9393;42.158;24.748;2023-10-08T02:52:44;99674.72;;;19.62;40.21
18527;BME280;9393;42.158;24.748;2023-10-08T02:55:49;99674.25;;;19.52;40.80
18527;BME280;9393;42.158;24.748;2023-10-08T02:58:53;99672.03;;;19.55;40.72
18527;BME280;9393;42.158;24.748;2023-10-08T03:01:58;99668.25;;;19.37;41.16
18527;BME280;9393;42.158;24.748;2023-10-08T03:05:03;99665.56;;;19.58;40.54
18527;BME280;9393;42.158;24.748;2023-10-08T03:08:11;99663.13;;;19.63;40.28
18527;BME280;9393;42.158;24.748;2023-10-08T03:11:16;99666.59;;;19.63;40.41
18527;BME280;9393;42.158;24.748;2023-10-08T03:14:20;99670.06;;;19.64;39.88
18527;BME280;9393;42.158;24.748;2023-10-08T03:17:25;99665.97;;;19.61;39.87
18527;BME280;9393;42.158;24.748;2023-10-08T03:20:31;99665.34;;;19.59;39.64
18527;BME280;9393;42.158;24.748;2023-10-08T03:23:45;99668.69;;;19.75;39.42
18527;BME280;9393;42.158;24.748;2023-10-08T03:26:51;99670.50;;;19.74;39.55
18527;BME280;9393;42.158;24.748;2023-10-08T03:29:58;99674.94;;;19.60;39.16
18527;BME280;9393;42.158;24.748;2023-10-08T03:33:03;99667.41;;;19.64;39.33
18527;BME280;9393;42.158;24.748;2023-10-08T03:36:13;99665.56;;;19.58;39.51
18527;BME280;9393;42.158;24.748;2023-10-08T03:39:23;99662.06;;;19.51;39.60
18527;BME280;9393;42.158;24.748;2023-10-08T03:42:45;99673.63;;;19.43;39.82
18527;BME280;9393;42.158;24.748;2023-10-08T03:45:51;99667.78;;;19.54;39.09
18527;BME280;9393;42.158;24.748;2023-10-08T03:49:01;99667.81;;;19.61;38.98
18527;BME280;9393;42.158;24.748;2023-10-08T03:52:09;99669.06;;;19.65;39.30
18527;BME280;9393;42.158;24.748;2023-10-08T03:55:15;99663.13;;;19.63;38.83
18527;BME280;9393;42.158;24.748;2023-10-08T03:58:30;99666.97;;;19.54;38.83
18527;BME280;9393;42.158;24.748;2023-10-08T04:01:43;99670.06;;;19.64;38.70
18527;BME280;9393;42.158;24.748;2023-10-08T04:04:47;99672.34;;;19.80;38.54
18527;BME280;9393;42.158;24.748;2023-10-08T04:07:55;99670.34;;;19.82;38.57
18527;BME280;9393;42.158;24.748;2023-10-08T04:11:19;99670.78;;;19.92;38.43
18527;BME280;9393;42.158;24.748;2023-10-08T04:14:34;99667.09;;;19.87;38.44
18527;BME280;9393;42.158;24.748;2023-10-08T04:17:39;99669.34;;;19.96;38.26
18527;BME280;9393;42.158;24.748;2023-10-08T04:20:48;99666.69;;;19.96;37.94
18527;BME280;9393;42.158;24.748;2023-10-08T04:24:03;99666.25;;;19.86;38.21
18527;BME280;9393;42.158;24.748;2023-10-08T04:27:08;99664.44;;;19.87;38.28
18527;BME280;9393;42.158;24.748;2023-10-08T04:30:14;99663.59;;;19.80;38.48
18527;BME280;9393;42.158;24.748;2023-10-08T04:33:18;99674.44;;;19.91;38.13
18527;BME280;9393;42.158;24.748;2023-10-08T04:36:23;99664.56;;;19.65;38.38
18527;BME280;9393;42.158;24.748;2023-10-08T04:39:27;99672.78;;;19.84;38.40
18527;BME280;9393;42.158;24.748;2023-10-08T04:42:35;99674.38;;;19.72;38.46
18527;BME280;9393;42.158;24.748;2023-10-08T04:45:45;99673.75;;;19.76;38.66
18527;BME280;9393;42.158;24.748;2023-10-08T04:48:49;99675.56;;;19.69;38.78
18527;BME280;9393;42.158;24.748;2023-10-08T04:51:54;99677.47;;;19.88;38.45
18527;BME280;9393;42.158;24.748;2023-10-08T04:55:01;99680.28;;;19.80;38.57
18527;BME280;9393;42.158;24.748;2023-10-08T04:58:15;99679.25;;;19.75;38.60
18527;BME280;9393;42.158;24.748;2023-10-08T05:01:35;99681.13;;;19.87;38.75
18527;BME280;9393;42.158;24.748;2023-10-08T05:04:51;99684.03;;;19.92;38.68
18527;BME280;9393;42.158;24.748;2023-10-08T05:08:24;99681.41;;;20.05;38.91
18527;BME280;9393;42.158;24.748;2023-10-08T05:11:35;99673.47;;;20.05;39.07
18527;BME280;9393;42.158;24.748;2023-10-08T05:14:52;99683.66;;;20.08;38.85
18527;BME280;9393;42.158;24.748;2023-10-08T05:18:21;99679.94;;;19.96;39.29
18527;BME280;9393;42.158;24.748;2023-10-08T05:21:40;99671.81;;;20.04;38.80
18527;BME280;9393;42.158;24.748;2023-10-08T05:24:54;99667.16;;;20.06;38.82
18527;BME280;9393;42.158;24.748;2023-10-08T05:28:10;99664.94;;;20.16;38.88
18527;BME280;9393;42.158;24.748;2023-10-08T05:31:27;99657.78;;;20.10;38.70
18527;BME280;9393;42.158;24.748;2023-10-08T05:34:51;99653.53;;;20.16;38.46
18527;BME280;9393;42.158;24.748;2023-10-08T05:38:17;99655.25;;;20.63;37.20
18527;BME280;9393;42.158;24.748;2023-10-08T05:41:35;99649.34;;;20.74;36.79
18527;BME280;9393;42.158;24.748;2023-10-08T05:44:54;99659.72;;;21.22;36.05
18527;BME280;9393;42.158;24.748;2023-10-08T05:48:16;99664.31;;;21.52;35.48
18527;BME280;9393;42.158;24.748;2023-10-08T05:51:32;99670.56;;;21.78;34.95
18527;BME280;9393;42.158;24.748;2023-10-08T05:54:47;99671.50;;;22.03;34.60
18527;BME280;9393;42.158;24.748;2023-10-08T05:58:17;99677.19;;;22.44;33.95
18527;BME280;9393;42.158;24.748;2023-10-08T06:01:38;99672.97;;;22.61;33.28
18527;BME280;9393;42.158;24.748;2023-10-08T06:04:42;99679.19;;;23.05;32.66
18527;BME280;9393;42.158;24.748;2023-10-08T06:07:57;99675.19;;;22.96;32.96
18527;BME280;9393;42.158;24.748;2023-10-08T06:11:13;99683.00;;;23.34;32.22
18527;BME280;9393;42.158;24.748;2023-10-08T06:14:30;99691.16;;;23.57;32.19
18527;BME280;9393;42.158;24.748;2023-10-08T06:17:55;99690.72;;;23.60;32.30
18527;BME280;9393;42.158;24.748;2023-10-08T06:21:07;99694.03;;;23.74;32.17
18527;BME280;9393;42.158;24.748;2023-10-08T06:24:13;99689.16;;;23.89;32.38
18527;BME280;9393;42.158;24.748;2023-10-08T06:27:19;99683.19;;;24.05;31.87
18527;BME280;9393;42.158;24.748;2023-10-08T06:30:27;99688.53;;;24.05;31.61
18527;BME280;9393;42.158;24.748;2023-10-08T06:33:38;99693.13;;;23.98;31.30
18527;BME280;9393;42.158;24.748;2023-10-08T06:36:44;99685.84;;;24.05;30.93
18527;BME280;9393;42.158;24.748;2023-10-08T06:39:50;99683.09;;;24.30;30.43
18527;BME280;9393;42.158;24.748;2023-10-08T06:42:55;99691.59;;;24.50;30.16
18527;BME280;9393;42.158;24.748;2023-10-08T06:45:59;99688.22;;;24.43;29.80
18527;BME280;9393;42.158;24.748;2023-10-08T06:49:03;99681.50;;;24.40;29.76
18527;BME280;9393;42.158;24.748;2023-10-08T06:52:14;99688.28;;;24.78;29.06
18527;BME280;9393;42.158;24.748;2023-10-08T06:55:23;99690.16;;;24.77;28.85
18527;BME280;9393;42.158;24.748;2023-10-08T06:58:29;99686.31;;;24.73;28.27
18527;BME280;9393;42.158;24.748;2023-10-08T07:01:34;99684.00;;;24.65;28.46
18527;BME280;9393;42.158;24.748;2023-10-08T07:04:42;99694.00;;;24.93;27.85
18527;BME280;9393;42.158;24.748;2023-10-08T07:07:50;99680.78;;;24.86;28.18
18527;BME280;9393;42.158;24.748;2023-10-08T07:10:57;99673.72;;;25.03;27.74
18527;BME280;9393;42.158;24.748;2023-10-08T07:14:04;99678.72;;;25.11;28.07
18527;BME280;9393;42.158;24.748;2023-10-08T07:17:08;99677.91;;;25.23;28.19
18527;BME280;9393;42.158;24.748;2023-10-08T07:20:23;99664.88;;;25.38;28.00
18527;BME280;9393;42.158;24.748;2023-10-08T07:23:27;99663.97;;;25.84;27.96
18527;BME280;9393;42.158;24.748;2023-10-08T07:26:38;99660.50;;;25.83;28.24
18527;BME280;9393;42.158;24.748;2023-10-08T07:29:48;99653.63;;;26.16;27.63
18527;BME280;9393;42.158;24.748;2023-10-08T07:32:52;99652.06;;;26.48;27.28
18527;BME280;9393;42.158;24.748;2023-10-08T07:35:57;99650.50;;;26.19;27.18
18527;BME280;9393;42.158;24.748;2023-10-08T07:39:14;99640.50;;;26.14;26.89
18527;BME280;9393;42.158;24.748;2023-10-08T07:42:30;99635.41;;;26.74;26.77
18527;BME280;9393;42.158;24.748;2023-10-08T07:45:37;99636.28;;;27.13;26.44
18527;BME280;9393;42.158;24.748;2023-10-08T07:48:41;99631.56;;;27.20;26.54
18527;BME280;9393;42.158;24.748;2023-10-08T07:51:46;99627.16;;;26.92;26.61
18527;BME280;9393;42.158;24.748;2023-10-08T07:54:53;99637.91;;;26.81;26.09
18527;BME280;9393;42.158;24.748;2023-10-08T07:57:58;99632.72;;;27.29;26.25
18527;BME280;9393;42.158;24.748;2023-10-08T08:01:05;99629.56;;;27.32;26.21
18527;BME280;9393;42.158;24.748;2023-10-08T08:04:10;99632.94;;;27.66;25.89
18527;BME280;9393;42.158;24.748;2023-10-08T08:07:23;99623.66;;;27.52;25.91
18527;BME280;9393;42.158;24.748;2023-10-08T08:10:29;99607.56;;;27.74;25.53
18527;BME280;9393;42.158;24.748;2023-10-08T08:13:34;99603.13;;;27.84;25.75
18527;BME280;9393;42.158;24.748;2023-10-08T08:16:39;99613.25;;;27.77;25.46
18527;BME280;9393;42.158;24.748;2023-10-08T08:19:44;99603.84;;;28.28;25.04
18527;BME280;9393;42.158;24.748;2023-10-08T08:22:49;99597.78;;;28.11;25.04
18527;BME280;9393;42.158;24.748;2023-10-08T08:25:57;99604.19;;;28.37;24.53
18527;BME280;9393;42.158;24.748;2023-10-08T08:29:15;99601.22;;;28.06;24.80
18527;BME280;9393;42.158;24.748;2023-10-08T08:32:19;99593.97;;;28.34;24.68
18527;BME280;9393;42.158;24.748;2023-10-08T08:35:24;99595.13;;;28.43;24.65
18527;BME280;9393;42.158;24.748;2023-10-08T08:38:29;99589.16;;;28.68;24.11
18527;BME280;9393;42.158;24.748;2023-10-08T08:41:37;99591.09;;;28.77;24.45
18527;BME280;9393;42.158;24.748;2023-10-08T08:44:44;99586.25;;;28.74;24.26
18527;BME280;9393;42.158;24.748;2023-10-08T08:47:49;99588.03;;;28.64;24.37
18527;BME280;9393;42.158;24.748;2023-10-08T08:50:54;99578.16;;;28.69;23.76
18527;BME280;9393;42.158;24.748;2023-10-08T08:53:59;99580.66;;;28.81;23.71
18527;BME280;9393;42.158;24.748;2023-10-08T08:57:10;99577.44;;;28.47;24.27
18527;BME280;9393;42.158;24.748;2023-10-08T09:00:19;99568.84;;;28.82;23.99
18527;BME280;9393;42.158;24.748;2023-10-08T09:03:23;99564.66;;;29.01;23.45
18527;BME280;9393;42.158;24.748;2023-10-08T09:06:33;99561.88;;;29.33;23.51
18527;BME280;9393;42.158;24.748;2023-10-08T09:09:40;99559.47;;;29.41;23.37
18527;BME280;9393;42.158;24.748;2023-10-08T09:12:47;99556.22;;;29.34;23.33
18527;BME280;9393;42.158;24.748;2023-10-08T09:15:56;99558.69;;;29.41;23.45
18527;BME280;9393;42.158;24.748;2023-10-08T09:19:01;99551.16;;;29.48;23.17
18527;BME280;9393;42.158;24.748;2023-10-08T09:22:08;99542.34;;;29.68;23.11
18527;BME280;9393;42.158;24.748;2023-10-08T09:25:20;99542.69;;;30.37;23.31
18527;BME280;9393;42.158;24.748;2023-10-08T09:28:25;99523.06;;;30.16;23.19
18527;BME280;9393;42.158;24.748;2023-10-08T09:31:31;99529.22;;;29.96;23.93
18527;BME280;9393;42.158;24.748;2023-10-08T09:34:38;99536.22;;;30.23;23.55
18527;BME280;9393;42.158;24.748;2023-10-08T09:37:43;99521.13;;;30.62;23.43
18527;BME280;9393;42.158;24.748;2023-10-08T09:40:48;99519.56;;;30.51;23.55
18527;BME280;9393;42.158;24.748;2023-10-08T09:43:52;99529.25;;;30.17;23.71
18527;BME280;9393;42.158;24.748;2023-10-08T09:47:02;99523.84;;;30.06;23.97
18527;BME280;9393;42.158;24.748;2023-10-08T09:50:08;99498.56;;;30.33;23.30
18527;BME280;9393;42.158;24.748;2023-10-08T09:53:15;99509.84;;;30.50;23.83
18527;BME280;9393;42.158;24.748;2023-10-08T09:56:20;99501.53;;;30.46;23.54
18527;BME280;9393;42.158;24.748;2023-10-08T09:59:25;99507.97;;;30.50;23.25
18527;BME280;9393;42.158;24.748;2023-10-08T10:02:32;99508.72;;;30.71;23.06
18527;BME280;9393;42.158;24.748;2023-10-08T10:05:37;99492.31;;;30.63;23.38
18527;BME280;9393;42.158;24.748;2023-10-08T10:08:42;99487.72;;;30.78;23.39
18527;BME280;9393;42.158;24.748;2023-10-08T10:11:48;99496.25;;;30.90;23.45
18527;BME280;9393;42.158;24.748;2023-10-08T10:14:54;99478.34;;;31.30;22.99
18527;BME280;9393;42.158;24.748;2023-10-08T10:18:08;99488.72;;;31.51;22.87
18527;BME280;9393;42.158;24.748;2023-10-08T10:21:30;99480.81;;;31.65;22.69
18527;BME280;9393;42.158;24.748;2023-10-08T10:24:36;99476.31;;;31.89;22.92
18527;BME280;9393;42.158;24.748;2023-10-08T10:31:23;99460.59;;;31.96;22.94
18527;BME280;9393;42.158;24.748;2023-10-08T10:34:29;99454.47;;;31.57;23.17
18527;BME280;9393;42.158;24.748;2023-10-08T10:37:37;99448.66;;;31.74;23.21
18527;BME280;9393;42.158;24.748;2023-10-08T10:40:48;99441.00;;;31.57;23.14
18527;BME280;9393;42.158;24.748;2023-10-08T10:43:59;99436.03;;;31.69;23.23
18527;BME280;9393;42.158;24.748;2023-10-08T10:47:10;99431.34;;;31.80;23.71
18527;BME280;9393;42.158;24.748;2023-10-08T10:50:32;99432.13;;;31.85;23.80
18527;BME280;9393;42.158;24.748;2023-10-08T10:53:50;99419.84;;;31.69;23.67
18527;BME280;9393;42.158;24.748;2023-10-08T10:57:06;99432.66;;;31.48;23.76
18527;BME280;9393;42.158;24.748;2023-10-08T11:00:20;99418.88;;;31.55;23.84
18527;BME280;9393;42.158;24.748;2023-10-08T11:03:38;99411.03;;;31.59;23.96
18527;BME280;9393;42.158;24.748;2023-10-08T11:06:48;99410.69;;;31.70;24.02
18527;BME280;9393;42.158;24.748;2023-10-08T11:09:59;99409.59;;;31.71;24.03
18527;BME280;9393;42.158;24.748;2023-10-08T11:13:05;99408.78;;;31.71;23.78
18527;BME280;9393;42.158;24.748;2023-10-08T11:16:17;99404.88;;;31.58;23.76
18527;BME280;9393;42.158;24.748;2023-10-08T11:19:24;99395.50;;;31.45;24.24
18527;BME280;9393;42.158;24.748;2023-10-08T11:22:42;99394.88;;;31.20;24.68
18527;BME280;9393;42.158;24.748;2023-10-08T11:25:54;99395.22;;;31.47;24.22
18527;BME280;9393;42.158;24.748;2023-10-08T11:29:02;99388.78;;;31.43;24.21
18527;BME280;9393;42.158;24.748;2023-10-08T11:32:08;99384.22;;;31.38;24.44
18527;BME280;9393;42.158;24.748;2023-10-08T11:35:15;99376.44;;;31.71;24.29
18527;BME280;9393;42.158;24.748;2023-10-08T11:38:21;99371.78;;;31.47;24.49
18527;BME280;9393;42.158;24.748;2023-10-08T11:41:25;99380.06;;;31.56;23.93
18527;BME280;9393;42.158;24.748;2023-10-08T11:44:30;99372.53;;;31.48;24.32
18527;BME280;9393;42.158;24.748;2023-10-08T11:47:39;99367.00;;;31.34;24.27
18527;BME280;9393;42.158;24.748;2023-10-08T11:50:44;99371.03;;;31.37;24.06
18527;BME280;9393;42.158;24.748;2023-10-08T11:53:51;99361.44;;;31.21;24.85
18527;BME280;9393;42.158;24.748;2023-10-08T11:56:56;99356.38;;;31.48;24.25
18527;BME280;9393;42.158;24.748;2023-10-08T12:00:00;99360.06;;;31.28;24.64
18527;BME280;9393;42.158;24.748;2023-10-08T12:03:35;99334.97;;;31.67;24.21
18527;BME280;9393;42.158;24.748;2023-10-08T12:06:40;99341.09;;;31.72;24.46
18527;BME280;9393;42.158;24.748;2023-10-08T12:09:51;99336.63;;;31.86;24.37
18527;BME280;9393;42.158;24.748;2023-10-08T12:12:56;99342.03;;;31.86;24.57
18527;BME280;9393;42.158;24.748;2023-10-08T12:16:02;99328.78;;;31.90;24.17
18527;BME280;9393;42.158;24.748;2023-10-08T12:19:09;99331.69;;;31.70;24.47
18527;BME280;9393;42.158;24.748;2023-10-08T12:22:19;99325.34;;;31.55;24.04
18527;BME280;9393;42.158;24.748;2023-10-08T12:25:24;99336.25;;;31.74;24.06
18527;BME280;9393;42.158;24.748;2023-10-08T12:28:29;99330.63;;;31.66;24.40
18527;BME280;9393;42.158;24.748;2023-10-08T12:31:33;99327.53;;;31.82;24.52
18527;BME280;9393;42.158;24.748;2023-10-08T12:34:37;99340.69;;;31.89;24.41
18527;BME280;9393;42.158;24.748;2023-10-08T12:37:41;99329.66;;;31.85;24.27
18527;BME280;9393;42.158;24.748;2023-10-08T12:40:48;99321.03;;;31.83;24.15
18527;BME280;9393;42.158;24.748;2023-10-08T12:43:55;99323.25;;;31.76;23.91
18527;BME280;9393;42.158;24.748;2023-10-08T12:47:01;99330.78;;;31.79;23.66
18527;BME280;9393;42.158;24.748;2023-10-08T12:50:08;99321.88;;;31.50;24.17
18527;BME280;9393;42.158;24.748;2023-10-08T12:53:19;99315.69;;;31.54;24.23
18527;BME280;9393;42.158;24.748;2023-10-08T12:56:27;99313.53;;;31.51;23.78
18527;BME280;9393;42.158;24.748;2023-10-08T12:59:42;99314.06;;;31.53;24.11
18527;BME280;9393;42.158;24.748;2023-10-08T13:02:50;99322.53;;;31.71;24.22
18527;BME280;9393;42.158;24.748;2023-10-08T13:05:57;99320.31;;;31.73;23.85
18527;BME280;9393;42.158;24.748;2023-10-08T13:09:06;99312.25;;;31.73;23.57
18527;BME280;9393;42.158;24.748;2023-10-08T13:12:16;99303.28;;;31.48;24.19
18527;BME280;9393;42.158;24.748;2023-10-08T13:15:20;99309.84;;;31.09;24.03
18527;BME280;9393;42.158;24.748;2023-10-08T13:18:28;99297.19;;;30.60;24.68
18527;BME280;9393;42.158;24.748;2023-10-08T13:21:32;99300.03;;;30.25;25.18
18527;BME280;9393;42.158;24.748;2023-10-08T13:24:36;99292.56;;;30.06;24.90
18527;BME280;9393;42.158;24.748;2023-10-08T13:27:45;99292.31;;;30.13;25.38
18527;BME280;9393;42.158;24.748;2023-10-08T13:30:50;99290.63;;;30.22;25.13
18527;BME280;9393;42.158;24.748;2023-10-08T13:33:57;99290.94;;;30.11;25.61
18527;BME280;9393;42.158;24.748;2023-10-08T13:37:06;99300.34;;;30.18;25.67
18527;BME280;9393;42.158;24.748;2023-10-08T13:40:10;99293.09;;;30.14;26.15
18527;BME280;9393;42.158;24.748;2023-10-08T13:43:19;99291.53;;;30.02;26.21
18527;BME280;9393;42.158;24.748;2023-10-08T13:46:26;99294.25;;;29.77;26.33
18527;BME280;9393;42.158;24.748;2023-10-08T13:49:30;99291.56;;;29.72;26.56
18527;BME280;9393;42.158;24.748;2023-10-08T13:52:34;99290.50;;;29.73;26.33
18527;BME280;9393;42.158;24.748;2023-10-08T13:55:41;99292.34;;;29.83;26.82
18527;BME280;9393;42.158;24.748;2023-10-08T13:58:49;99282.97;;;29.65;27.06
18527;BME280;9393;42.158;24.748;2023-10-08T14:01:54;99280.56;;;29.69;26.95
18527;BME280;9393;42.158;24.748;2023-10-08T14:04:59;99281.81;;;30.12;26.39
18527;BME280;9393;42.158;24.748;2023-10-08T14:08:06;99284.94;;;30.34;26.66
18527;BME280;9393;42.158;24.748;2023-10-08T14:11:17;99287.91;;;30.27;26.42
18527;BME280;9393;42.158;24.748;2023-10-08T14:14:22;99281.84;;;30.01;27.02
18527;BME280;9393;42.158;24.748;2023-10-08T14:17:35;99288.88;;;29.77;27.46
18527;BME280;9393;42.158;24.748;2023-10-08T14:20:46;99285.72;;;29.45;27.80
18527;BME280;9393;42.158;24.748;2023-10-08T14:23:56;99284.09;;;29.24;28.21
18527;BME280;9393;42.158;24.748;2023-10-08T14:27:05;99280.34;;;29.04;28.48
18527;BME280;9393;42.158;24.748;2023-10-08T14:30:15;99290.00;;;28.85;28.25
18527;BME280;9393;42.158;24.748;2023-10-08T14:33:23;99292.94;;;28.89;28.55
18527;BME280;9393;42.158;24.748;2023-10-08T14:36:29;99291.03;;;28.69;28.86
18527;BME280;9393;42.158;24.748;2023-10-08T14:39:51;99289.38;;;28.63;29.33
18527;BME280;9393;42.158;24.748;2023-10-08T14:43:12;99287.19;;;28.55;29.53
18527;BME280;9393;42.158;24.748;2023-10-08T14:46:19;99296.13;;;28.71;29.29
18527;BME280;9393;42.158;24.748;2023-10-08T14:49:23;99294.53;;;28.80;29.52
18527;BME280;9393;42.158;24.748;2023-10-08T14:52:28;99304.75;;;28.98;28.90
18527;BME280;9393;42.158;24.748;2023-10-08T14:55:32;99311.47;;;29.00;29.33
18527;BME280;9393;42.158;24.748;2023-10-08T14:58:38;99299.09;;;28.74;29.55
18527;BME280;9393;42.158;24.748;2023-10-08T15:01:45;99301.25;;;28.77;29.09
18527;BME280;9393;42.158;24.748;2023-10-08T15:04:49;99309.00;;;28.69;29.37
18527;BME280;9393;42.158;24.748;2023-10-08T15:07:53;99313.25;;;28.54;29.17
18527;BME280;9393;42.158;24.748;2023-10-08T15:10:58;99318.31;;;28.41;29.82
18527;BME280;9393;42.158;24.748;2023-10-08T15:14:03;99326.06;;;28.37;29.61
18527;BME280;9393;42.158;24.748;2023-10-08T15:17:13;99321.44;;;28.28;29.67
18527;BME280;9393;42.158;24.748;2023-10-08T15:20:18;99328.63;;;28.17;29.96
18527;BME280;9393;42.158;24.748;2023-10-08T15:23:22;99335.34;;;28.15;30.22
18527;BME280;9393;42.158;24.748;2023-10-08T15:26:29;99343.03;;;28.06;30.23
18527;BME280;9393;42.158;24.748;2023-10-08T15:29:34;99341.66;;;27.98;30.22
18527;BME280;9393;42.158;24.748;2023-10-08T15:32:39;99353.38;;;27.82;30.22
18527;BME280;9393;42.158;24.748;2023-10-08T15:35:46;99354.41;;;27.81;30.48
18527;BME280;9393;42.158;24.748;2023-10-08T15:38:50;99359.59;;;27.56;30.89
18527;BME280;9393;42.158;24.748;2023-10-08T15:41:54;99354.53;;;27.59;30.52
18527;BME280;9393;42.158;24.748;2023-10-08T15:44:59;99355.00;;;27.51;30.96
18527;BME280;9393;42.158;24.748;2023-10-08T15:48:06;99360.63;;;27.50;30.73
18527;BME280;9393;42.158;24.748;2023-10-08T15:51:11;99369.72;;;27.49;30.93
18527;BME280;9393;42.158;24.748;2023-10-08T15:54:15;99372.31;;;27.44;31.26
18527;BME280;9393;42.158;24.748;2023-10-08T15:57:23;99380.81;;;27.36;31.16
18527;BME280;9393;42.158;24.748;2023-10-08T16:00:27;99377.28;;;27.30;31.35
18527;BME280;9393;42.158;24.748;2023-10-08T16:03:33;99376.09;;;27.16;31.48
18527;BME280;9393;42.158;24.748;2023-10-08T16:06:37;99381.44;;;27.16;31.44
18527;BME280;9393;42.158;24.748;2023-10-08T16:09:41;99380.25;;;27.07;31.58
18527;BME280;9393;42.158;24.748;2023-10-08T16:12:45;99381.09;;;26.86;31.27
18527;BME280;9393;42.158;24.748;2023-10-08T16:15:49;99392.31;;;26.83;31.35
18527;BME280;9393;42.158;24.748;2023-10-08T16:18:55;99385.03;;;26.78;31.47
18527;BME280;9393;42.158;24.748;2023-10-08T16:21:59;99386.31;;;26.76;31.38
18527;BME280;9393;42.158;24.748;2023-10-08T16:25:04;99397.22;;;26.69;31.49
18527;BME280;9393;42.158;24.748;2023-10-08T16:28:08;99400.47;;;26.71;31.16
18527;BME280;9393;42.158;24.748;2023-10-08T16:31:13;99400.78;;;26.53;31.29
18527;BME280;9393;42.158;24.748;2023-10-08T16:34:19;99407.56;;;26.60;31.19
18527;BME280;9393;42.158;24.748;2023-10-08T16:37:24;99415.78;;;26.54;31.61
18527;BME280;9393;42.158;24.748;2023-10-08T16:40:28;99413.38;;;26.36;31.81